sensor_id;sensor_type;location;lat;lon;timestamp;P1;durP1;ratioP1;P2;durP2;ratioP2
76667;SDS011;65585;51.166;16.922;2023-11-21T00:01:10;12.98;;;5.28;;
76667;SDS011;65585;51.166;16.922;2023-11-21T00:03:39;11.10;;;4.78;;
76667;SDS011;65585;51.166;16.922;2023-11-21T00:06:06;10.27;;;4.40;;
76667;SDS011;65585;51.166;16.922;2023-11-21T00:08:35;7.93;;;4.15;;
76667;SDS011;65585;51.166;16.922;2023-11-21T00:11:02;13.52;;;4.68;;
76667;SDS011;65585;51.166;16.922;2023-11-21T00:13:31;10.20;;;4.00;;
76667;SDS011;65585;51.166;16.922;2023-11-21T00:15:58;7.53;;;3.90;;
76667;SDS011;65585;51.166;16.922;2023-11-21T00:18:24;11.02;;;4.40;;
76667;SDS011;65585;51.166;16.922;2023-11-21T00:20:50;6.85;;;3.35;;
76667;SDS011;65585;51.166;16.922;2023-11-21T00:23:16;14.98;;;4.25;;
76667;SDS011;65585;51.166;16.922;2023-11-21T00:25:43;9.48;;;4.45;;
76667;SDS011;65585;51.166;16.922;2023-11-21T00:28:09;11.68;;;4.13;;
76667;SDS011;65585;51.166;16.922;2023-11-21T00:30:35;14.23;;;3.78;;
76667;SDS011;65585;51.166;16.922;2023-11-21T00:33:01;10.80;;;4.35;;
76667;SDS011;65585;51.166;16.922;2023-11-21T00:35:28;8.38;;;3.90;;
76667;SDS011;65585;51.166;16.922;2023-11-21T00:37:54;11.93;;;4.20;;
76667;SDS011;65585;51.166;16.922;2023-11-21T00:40:19;9.27;;;4.13;;
76667;SDS011;65585;51.166;16.922;2023-11-21T00:42:46;9.25;;;3.90;;
76667;SDS011;65585;51.166;16.922;2023-11-21T00:45:12;12.05;;;4.50;;
76667;SDS011;65585;51.166;16.922;2023-11-21T00:47:38;9.20;;;3.92;;
76667;SDS011;65585;51.166;16.922;2023-11-21T00:50:05;6.80;;;3.90;;
76667;SDS011;65585;51.166;16.922;2023-11-21T00:52:35;9.75;;;4.20;;
76667;SDS011;65585;51.166;16.922;2023-11-21T00:55:01;7.10;;;4.13;;
76667;SDS011;65585;51.166;16.922;2023-11-21T00:57:28;10.45;;;5.28;;
76667;SDS011;65585;51.166;16.922;2023-11-21T00:59:54;12.13;;;3.78;;
76667;SDS011;65585;51.166;16.922;2023-11-21T01:02:21;6.95;;;3.42;;
76667;SDS011;65585;51.166;16.922;2023-11-21T01:04:46;10.73;;;4.20;;
76667;SDS011;65585;51.166;16.922;2023-11-21T01:07:13;7.13;;;3.80;;
76667;SDS011;65585;51.166;16.922;2023-11-21T01:09:39;8.75;;;4.38;;
76667;SDS011;65585;51.166;16.922;2023-11-21T01:12:05;10.10;;;4.20;;
76667;SDS011;65585;51.166;16.922;2023-11-21T01:14:32;11.55;;;4.43;;
76667;SDS011;65585;51.166;16.922;2023-11-21T01:16:58;10.50;;;4.18;;
76667;SDS011;65585;51.166;16.922;2023-11-21T01:19:24;9.65;;;4.63;;
76667;SDS011;65585;51.166;16.922;2023-11-21T01:21:50;7.43;;;3.72;;
76667;SDS011;65585;51.166;16.922;2023-11-21T01:24:17;8.27;;;4.18;;
76667;SDS011;65585;51.166;16.922;2023-11-21T01:26:43;12.00;;;4.50;;
76667;SDS011;65585;51.166;16.922;2023-11-21T01:31:38;12.77;;;4.32;;
76667;SDS011;65585;51.166;16.922;2023-11-21T01:34:03;7.85;;;3.90;;
76667;SDS011;65585;51.166;16.922;2023-11-21T01:36:31;7.82;;;4.20;;
76667;SDS011;65585;51.166;16.922;2023-11-21T01:38:57;10.50;;;4.35;;
76667;SDS011;65585;51.166;16.922;2023-11-21T01:41:27;8.77;;;4.20;;
76667;SDS011;65585;51.166;16.922;2023-11-21T01:43:54;11.40;;;3.75;;
76667;SDS011;65585;51.166;16.922;2023-11-21T01:46:21;9.27;;;3.88;;
76667;SDS011;65585;51.166;16.922;2023-11-21T01:48:48;8.70;;;4.10;;
76667;SDS011;65585;51.166;16.922;2023-11-21T01:51:14;10.65;;;4.18;;
76667;SDS011;65585;51.166;16.922;2023-11-21T01:53:40;9.10;;;3.97;;
76667;SDS011;65585;51.166;16.922;2023-11-21T01:56:07;10.02;;;3.78;;
76667;SDS011;65585;51.166;16.922;2023-11-21T01:58:35;7.72;;;4.15;;
76667;SDS011;65585;51.166;16.922;2023-11-21T02:01:01;6.90;;;3.85;;
76667;SDS011;65585;51.166;16.922;2023-11-21T02:03:27;7.53;;;3.72;;
76667;SDS011;65585;51.166;16.922;2023-11-21T02:05:53;10.10;;;4.45;;
76667;SDS011;65585;51.166;16.922;2023-11-21T02:08:19;6.40;;;3.85;;
76667;SDS011;65585;51.166;16.922;2023-11-21T02:10:45;10.30;;;4.20;;
76667;SDS011;65585;51.166;16.922;2023-11-21T02:13:13;11.98;;;4.13;;
76667;SDS011;65585;51.166;16.922;2023-11-21T02:15:39;9.75;;;4.35;;
76667;SDS011;65585;51.166;16.922;2023-11-21T02:18:05;7.88;;;4.47;;
76667;SDS011;65585;51.166;16.922;2023-11-21T02:20:31;10.30;;;4.10;;
76667;SDS011;65585;51.166;16.922;2023-11-21T02:23:00;9.15;;;4.45;;
76667;SDS011;65585;51.166;16.922;2023-11-21T02:25:28;12.75;;;4.65;;
76667;SDS011;65585;51.166;16.922;2023-11-21T02:28:02;10.07;;;4.70;;
76667;SDS011;65585;51.166;16.922;2023-11-21T02:30:28;12.82;;;4.65;;
76667;SDS011;65585;51.166;16.922;2023-11-21T02:32:57;9.07;;;4.55;;
76667;SDS011;65585;51.166;16.922;2023-11-21T02:35:23;10.90;;;5.10;;
76667;SDS011;65585;51.166;16.922;2023-11-21T02:37:51;9.77;;;5.57;;
76667;SDS011;65585;51.166;16.922;2023-11-21T02:40:18;11.20;;;5.13;;
76667;SDS011;65585;51.166;16.922;2023-11-21T02:42:49;11.25;;;5.93;;
76667;SDS011;65585;51.166;16.922;2023-11-21T02:45:18;18.90;;;6.15;;
76667;SDS011;65585;51.166;16.922;2023-11-21T02:47:46;14.65;;;6.22;;
76667;SDS011;65585;51.166;16.922;2023-11-21T02:50:12;11.75;;;5.63;;
76667;SDS011;65585;51.166;16.922;2023-11-21T02:52:38;13.25;;;5.80;;
76667;SDS011;65585;51.166;16.922;2023-11-21T02:55:08;12.90;;;6.05;;
76667;SDS011;65585;51.166;16.922;2023-11-21T02:57:33;11.68;;;6.35;;
76667;SDS011;65585;51.166;16.922;2023-11-21T03:00:00;12.40;;;6.63;;
76667;SDS011;65585;51.166;16.922;2023-11-21T03:02:26;19.42;;;6.20;;
76667;SDS011;65585;51.166;16.922;2023-11-21T03:04:52;18.90;;;7.10;;
76667;SDS011;65585;51.166;16.922;2023-11-21T03:07:18;14.85;;;6.85;;
76667;SDS011;65585;51.166;16.922;2023-11-21T03:09:45;16.13;;;7.15;;
76667;SDS011;65585;51.166;16.922;2023-11-21T03:12:11;16.27;;;7.15;;
76667;SDS011;65585;51.166;16.922;2023-11-21T03:14:38;12.27;;;6.68;;
76667;SDS011;65585;51.166;16.922;2023-11-21T03:17:05;20.15;;;7.53;;
76667;SDS011;65585;51.166;16.922;2023-11-21T03:19:32;14.32;;;6.82;;
76667;SDS011;65585;51.166;16.922;2023-11-21T03:21:58;17.00;;;6.72;;
76667;SDS011;65585;51.166;16.922;2023-11-21T03:24:24;14.60;;;7.15;;
76667;SDS011;65585;51.166;16.922;2023-11-21T03:26:52;14.80;;;6.95;;
76667;SDS011;65585;51.166;16.922;2023-11-21T03:29:18;14.90;;;6.57;;
76667;SDS011;65585;51.166;16.922;2023-11-21T03:31:44;17.13;;;6.70;;
76667;SDS011;65585;51.166;16.922;2023-11-21T03:34:14;14.25;;;6.43;;
76667;SDS011;65585;51.166;16.922;2023-11-21T03:36:42;16.80;;;6.72;;
76667;SDS011;65585;51.166;16.922;2023-11-21T03:39:09;16.10;;;6.78;;
76667;SDS011;65585;51.166;16.922;2023-11-21T03:41:34;16.33;;;6.22;;
76667;SDS011;65585;51.166;16.922;2023-11-21T03:44:00;14.10;;;6.07;;
76667;SDS011;65585;51.166;16.922;2023-11-21T03:46:26;14.60;;;7.15;;
76667;SDS011;65585;51.166;16.922;2023-11-21T03:48:52;9.13;;;5.90;;
76667;SDS011;65585;51.166;16.922;2023-11-21T03:51:20;14.25;;;6.07;;
76667;SDS011;65585;51.166;16.922;2023-11-21T03:53:46;12.35;;;5.97;;
76667;SDS011;65585;51.166;16.922;2023-11-21T03:56:11;13.80;;;5.53;;
76667;SDS011;65585;51.166;16.922;2023-11-21T03:58:39;17.23;;;5.72;;
76667;SDS011;65585;51.166;16.922;2023-11-21T04:01:05;14.68;;;6.53;;
76667;SDS011;65585;51.166;16.922;2023-11-21T04:03:31;8.48;;;5.43;;
76667;SDS011;65585;51.166;16.922;2023-11-21T04:05:58;11.20;;;6.20;;
76667;SDS011;65585;51.166;16.922;2023-11-21T04:08:25;10.23;;;5.68;;
76667;SDS011;65585;51.166;16.922;2023-11-21T04:10:51;12.07;;;5.40;;
76667;SDS011;65585;51.166;16.922;2023-11-21T04:13:19;13.68;;;5.28;;
76667;SDS011;65585;51.166;16.922;2023-11-21T04:15:45;12.52;;;5.80;;
76667;SDS011;65585;51.166;16.922;2023-11-21T04:18:11;11.65;;;6.03;;
76667;SDS011;65585;51.166;16.922;2023-11-21T04:20:36;10.57;;;5.70;;
76667;SDS011;65585;51.166;16.922;2023-11-21T04:23:02;11.85;;;5.47;;
76667;SDS011;65585;51.166;16.922;2023-11-21T04:25:28;11.13;;;5.40;;
76667;SDS011;65585;51.166;16.922;2023-11-21T04:27:54;11.27;;;6.38;;
76667;SDS011;65585;51.166;16.922;2023-11-21T04:30:20;10.30;;;5.57;;
76667;SDS011;65585;51.166;16.922;2023-11-21T04:32:46;10.43;;;5.82;;
76667;SDS011;65585;51.166;16.922;2023-11-21T04:35:12;8.18;;;5.20;;
76667;SDS011;65585;51.166;16.922;2023-11-21T04:37:38;9.65;;;5.07;;
76667;SDS011;65585;51.166;16.922;2023-11-21T04:40:05;8.52;;;4.75;;
76667;SDS011;65585;51.166;16.922;2023-11-21T04:42:33;8.73;;;5.13;;
76667;SDS011;65585;51.166;16.922;2023-11-21T04:45:03;10.68;;;5.05;;
76667;SDS011;65585;51.166;16.922;2023-11-21T04:47:37;9.07;;;4.65;;
76667;SDS011;65585;51.166;16.922;2023-11-21T04:50:03;9.48;;;4.55;;
76667;SDS011;65585;51.166;16.922;2023-11-21T04:52:31;11.18;;;5.18;;
76667;SDS011;65585;51.166;16.922;2023-11-21T04:54:58;10.30;;;5.20;;
76667;SDS011;65585;51.166;16.922;2023-11-21T04:57:26;9.52;;;5.20;;
76667;SDS011;65585;51.166;16.922;2023-11-21T04:59:54;12.50;;;5.43;;
76667;SDS011;65585;51.166;16.922;2023-11-21T05:02:20;14.60;;;6.80;;
76667;SDS011;65585;51.166;16.922;2023-11-21T05:04:47;10.30;;;6.15;;
76667;SDS011;65585;51.166;16.922;2023-11-21T05:07:14;12.02;;;5.93;;
76667;SDS011;65585;51.166;16.922;2023-11-21T05:09:44;11.18;;;6.35;;
76667;SDS011;65585;51.166;16.922;2023-11-21T05:12:12;13.27;;;7.07;;
76667;SDS011;65585;51.166;16.922;2023-11-21T05:14:38;11.73;;;6.03;;
76667;SDS011;65585;51.166;16.922;2023-11-21T05:17:04;13.25;;;6.38;;
76667;SDS011;65585;51.166;16.922;2023-11-21T05:19:30;16.30;;;6.70;;
76667;SDS011;65585;51.166;16.922;2023-11-21T05:21:57;15.23;;;6.97;;
76667;SDS011;65585;51.166;16.922;2023-11-21T05:24:24;11.05;;;5.50;;
76667;SDS011;65585;51.166;16.922;2023-11-21T05:26:50;10.05;;;6.20;;
76667;SDS011;65585;51.166;16.922;2023-11-21T05:29:16;14.90;;;6.93;;
76667;SDS011;65585;51.166;16.922;2023-11-21T05:31:42;14.50;;;6.65;;
76667;SDS011;65585;51.166;16.922;2023-11-21T05:34:07;12.75;;;6.40;;
76667;SDS011;65585;51.166;16.922;2023-11-21T05:36:34;15.05;;;7.18;;
76667;SDS011;65585;51.166;16.922;2023-11-21T05:38:59;14.38;;;7.03;;
76667;SDS011;65585;51.166;16.922;2023-11-21T05:41:25;15.13;;;7.00;;
76667;SDS011;65585;51.166;16.922;2023-11-21T05:43:51;15.43;;;6.63;;
76667;SDS011;65585;51.166;16.922;2023-11-21T05:46:19;14.57;;;6.78;;
76667;SDS011;65585;51.166;16.922;2023-11-21T05:48:46;12.63;;;6.20;;
76667;SDS011;65585;51.166;16.922;2023-11-21T05:51:12;10.60;;;5.90;;
76667;SDS011;65585;51.166;16.922;2023-11-21T05:53:39;13.68;;;6.00;;
76667;SDS011;65585;51.166;16.922;2023-11-21T05:56:05;12.48;;;5.95;;
76667;SDS011;65585;51.166;16.922;2023-11-21T05:58:31;11.20;;;6.00;;
76667;SDS011;65585;51.166;16.922;2023-11-21T06:00:57;11.88;;;5.95;;
76667;SDS011;65585;51.166;16.922;2023-11-21T06:03:23;11.93;;;6.45;;
76667;SDS011;65585;51.166;16.922;2023-11-21T06:05:49;10.13;;;5.60;;
76667;SDS011;65585;51.166;16.922;2023-11-21T06:08:15;13.57;;;6.32;;
76667;SDS011;65585;51.166;16.922;2023-11-21T06:10:42;12.65;;;6.20;;
76667;SDS011;65585;51.166;16.922;2023-11-21T06:13:09;12.90;;;6.40;;
76667;SDS011;65585;51.166;16.922;2023-11-21T06:15:36;14.85;;;6.55;;
76667;SDS011;65585;51.166;16.922;2023-11-21T06:18:02;10.30;;;6.15;;
76667;SDS011;65585;51.166;16.922;2023-11-21T06:20:28;12.27;;;6.32;;
76667;SDS011;65585;51.166;16.922;2023-11-21T06:22:54;12.38;;;6.78;;
76667;SDS011;65585;51.166;16.922;2023-11-21T06:25:20;12.50;;;6.35;;
76667;SDS011;65585;51.166;16.922;2023-11-21T06:27:46;11.10;;;5.70;;
76667;SDS011;65585;51.166;16.922;2023-11-21T06:30:13;19.13;;;6.18;;
76667;SDS011;65585;51.166;16.922;2023-11-21T06:32:40;10.95;;;5.70;;
76667;SDS011;65585;51.166;16.922;2023-11-21T06:35:11;12.15;;;6.20;;
76667;SDS011;65585;51.166;16.922;2023-11-21T06:37:38;11.52;;;6.45;;
76667;SDS011;65585;51.166;16.922;2023-11-21T06:40:05;16.80;;;6.88;;
76667;SDS011;65585;51.166;16.922;2023-11-21T06:42:31;14.20;;;6.70;;
76667;SDS011;65585;51.166;16.922;2023-11-21T06:44:59;14.07;;;7.00;;
76667;SDS011;65585;51.166;16.922;2023-11-21T06:47:27;12.40;;;6.93;;
76667;SDS011;65585;51.166;16.922;2023-11-21T06:52:21;15.25;;;6.40;;
76667;SDS011;65585;51.166;16.922;2023-11-21T06:54:47;12.85;;;5.93;;
76667;SDS011;65585;51.166;16.922;2023-11-21T06:57:16;13.98;;;6.85;;
76667;SDS011;65585;51.166;16.922;2023-11-21T06:59:43;11.32;;;6.82;;
76667;SDS011;65585;51.166;16.922;2023-11-21T07:02:09;12.90;;;6.78;;
76667;SDS011;65585;51.166;16.922;2023-11-21T07:04:35;11.70;;;6.93;;
76667;SDS011;65585;51.166;16.922;2023-11-21T07:07:04;13.50;;;7.28;;
76667;SDS011;65585;51.166;16.922;2023-11-21T07:09:32;12.70;;;6.35;;
76667;SDS011;65585;51.166;16.922;2023-11-21T07:11:58;12.82;;;6.38;;
76667;SDS011;65585;51.166;16.922;2023-11-21T07:14:25;14.05;;;7.43;;
76667;SDS011;65585;51.166;16.922;2023-11-21T07:16:50;11.75;;;6.70;;
76667;SDS011;65585;51.166;16.922;2023-11-21T07:19:18;15.23;;;8.23;;
76667;SDS011;65585;51.166;16.922;2023-11-21T07:21:45;13.70;;;7.25;;
76667;SDS011;65585;51.166;16.922;2023-11-21T07:24:11;13.63;;;6.97;;
76667;SDS011;65585;51.166;16.922;2023-11-21T07:26:37;13.52;;;6.82;;
76667;SDS011;65585;51.166;16.922;2023-11-21T07:29:03;17.00;;;7.40;;
76667;SDS011;65585;51.166;16.922;2023-11-21T07:31:29;12.05;;;6.90;;
76667;SDS011;65585;51.166;16.922;2023-11-21T07:33:55;14.55;;;7.25;;
76667;SDS011;65585;51.166;16.922;2023-11-21T07:36:24;14.18;;;7.13;;
76667;SDS011;65585;51.166;16.922;2023-11-21T07:38:51;13.88;;;6.88;;
76667;SDS011;65585;51.166;16.922;2023-11-21T07:41:17;11.77;;;6.78;;
76667;SDS011;65585;51.166;16.922;2023-11-21T07:43:44;12.95;;;6.82;;
76667;SDS011;65585;51.166;16.922;2023-11-21T07:46:10;12.65;;;6.40;;
76667;SDS011;65585;51.166;16.922;2023-11-21T07:48:39;12.90;;;6.82;;
76667;SDS011;65585;51.166;16.922;2023-11-21T07:51:05;14.60;;;6.50;;
76667;SDS011;65585;51.166;16.922;2023-11-21T07:53:32;11.48;;;6.18;;
76667;SDS011;65585;51.166;16.922;2023-11-21T07:55:58;12.00;;;6.03;;
76667;SDS011;65585;51.166;16.922;2023-11-21T07:58:35;13.50;;;6.75;;
76667;SDS011;65585;51.166;16.922;2023-11-21T08:01:01;15.40;;;7.03;;
76667;SDS011;65585;51.166;16.922;2023-11-21T08:03:28;13.98;;;6.75;;
76667;SDS011;65585;51.166;16.922;2023-11-21T08:05:56;9.60;;;5.75;;
76667;SDS011;65585;51.166;16.922;2023-11-21T08:08:23;14.25;;;6.47;;
76667;SDS011;65585;51.166;16.922;2023-11-21T08:10:49;12.18;;;6.88;;
76667;SDS011;65585;51.166;16.922;2023-11-21T08:13:25;10.55;;;6.05;;
76667;SDS011;65585;51.166;16.922;2023-11-21T08:15:54;16.92;;;6.68;;
76667;SDS011;65585;51.166;16.922;2023-11-21T08:18:22;11.80;;;6.88;;
76667;SDS011;65585;51.166;16.922;2023-11-21T08:20:48;15.18;;;6.45;;
76667;SDS011;65585;51.166;16.922;2023-11-21T08:23:14;12.82;;;6.38;;
76667;SDS011;65585;51.166;16.922;2023-11-21T08:25:45;13.88;;;6.60;;
76667;SDS011;65585;51.166;16.922;2023-11-21T08:28:11;12.07;;;6.03;;
76667;SDS011;65585;51.166;16.922;2023-11-21T08:30:37;14.98;;;6.10;;
76667;SDS011;65585;51.166;16.922;2023-11-21T08:33:04;13.60;;;6.18;;
76667;SDS011;65585;51.166;16.922;2023-11-21T08:35:30;11.80;;;5.88;;
76667;SDS011;65585;51.166;16.922;2023-11-21T08:37:57;10.55;;;6.43;;
76667;SDS011;65585;51.166;16.922;2023-11-21T08:40:23;12.30;;;5.85;;
76667;SDS011;65585;51.166;16.922;2023-11-21T08:42:49;16.50;;;5.68;;
76667;SDS011;65585;51.166;16.922;2023-11-21T08:45:17;11.75;;;5.82;;
76667;SDS011;65585;51.166;16.922;2023-11-21T08:47:43;12.38;;;5.03;;
76667;SDS011;65585;51.166;16.922;2023-11-21T08:50:10;11.63;;;5.88;;
76667;SDS011;65585;51.166;16.922;2023-11-21T08:52:38;15.55;;;7.35;;
76667;SDS011;65585;51.166;16.922;2023-11-21T08:57:34;11.68;;;5.40;;
76667;SDS011;65585;51.166;16.922;2023-11-21T09:00:00;13.52;;;5.50;;
76667;SDS011;65585;51.166;16.922;2023-11-21T09:02:28;10.77;;;5.90;;
76667;SDS011;65585;51.166;16.922;2023-11-21T09:04:54;12.27;;;5.80;;
76667;SDS011;65585;51.166;16.922;2023-11-21T09:07:20;10.27;;;5.70;;
76667;SDS011;65585;51.166;16.922;2023-11-21T09:09:46;9.35;;;5.10;;
76667;SDS011;65585;51.166;16.922;2023-11-21T09:12:13;11.73;;;5.72;;
76667;SDS011;65585;51.166;16.922;2023-11-21T09:14:39;12.88;;;5.15;;
76667;SDS011;65585;51.166;16.922;2023-11-21T09:17:07;9.23;;;4.90;;
76667;SDS011;65585;51.166;16.922;2023-11-21T09:19:36;9.98;;;6.28;;
76667;SDS011;65585;51.166;16.922;2023-11-21T09:22:06;11.77;;;5.65;;
76667;SDS011;65585;51.166;16.922;2023-11-21T09:24:32;9.82;;;5.38;;
76667;SDS011;65585;51.166;16.922;2023-11-21T09:26:59;10.20;;;5.65;;
76667;SDS011;65585;51.166;16.922;2023-11-21T09:29:25;9.65;;;4.93;;
76667;SDS011;65585;51.166;16.922;2023-11-21T09:31:52;7.97;;;5.10;;
76667;SDS011;65585;51.166;16.922;2023-11-21T09:34:20;8.68;;;5.47;;
76667;SDS011;65585;51.166;16.922;2023-11-21T09:36:47;9.98;;;4.72;;
76667;SDS011;65585;51.166;16.922;2023-11-21T09:39:13;18.23;;;5.65;;
76667;SDS011;65585;51.166;16.922;2023-11-21T09:44:35;9.30;;;4.78;;
76667;SDS011;65585;51.166;16.922;2023-11-21T09:47:02;9.38;;;5.10;;
76667;SDS011;65585;51.166;16.922;2023-11-21T09:49:29;11.60;;;5.60;;
76667;SDS011;65585;51.166;16.922;2023-11-21T09:52:00;10.77;;;5.43;;
76667;SDS011;65585;51.166;16.922;2023-11-21T09:54:29;13.27;;;5.22;;
76667;SDS011;65585;51.166;16.922;2023-11-21T09:56:57;9.93;;;5.32;;
76667;SDS011;65585;51.166;16.922;2023-11-21T09:59:25;11.30;;;5.25;;
76667;SDS011;65585;51.166;16.922;2023-11-21T10:01:56;8.75;;;4.97;;
76667;SDS011;65585;51.166;16.922;2023-11-21T10:04:23;9.23;;;5.15;;
76667;SDS011;65585;51.166;16.922;2023-11-21T10:06:50;10.02;;;5.60;;
76667;SDS011;65585;51.166;16.922;2023-11-21T10:09:15;10.10;;;4.88;;
76667;SDS011;65585;51.166;16.922;2023-11-21T10:11:42;8.23;;;5.45;;
76667;SDS011;65585;51.166;16.922;2023-11-21T10:14:11;9.85;;;5.07;;
76667;SDS011;65585;51.166;16.922;2023-11-21T10:16:40;8.35;;;5.05;;
76667;SDS011;65585;51.166;16.922;2023-11-21T10:19:10;8.05;;;4.93;;
76667;SDS011;65585;51.166;16.922;2023-11-21T10:21:39;7.30;;;4.85;;
76667;SDS011;65585;51.166;16.922;2023-11-21T10:24:05;10.60;;;6.22;;
76667;SDS011;65585;51.166;16.922;2023-11-21T10:26:32;13.68;;;8.70;;
76667;SDS011;65585;51.166;16.922;2023-11-21T10:28:59;13.68;;;8.82;;
76667;SDS011;65585;51.166;16.922;2023-11-21T10:31:26;18.20;;;10.45;;
76667;SDS011;65585;51.166;16.922;2023-11-21T10:33:52;17.48;;;9.60;;
76667;SDS011;65585;51.166;16.922;2023-11-21T10:36:28;19.33;;;10.68;;
76667;SDS011;65585;51.166;16.922;2023-11-21T10:38:54;17.85;;;10.32;;
76667;SDS011;65585;51.166;16.922;2023-11-21T10:41:20;20.50;;;11.63;;
76667;SDS011;65585;51.166;16.922;2023-11-21T10:43:47;23.00;;;11.32;;
76667;SDS011;65585;51.166;16.922;2023-11-21T10:46:13;20.98;;;11.02;;
76667;SDS011;65585;51.166;16.922;2023-11-21T10:48:43;23.38;;;11.85;;
76667;SDS011;65585;51.166;16.922;2023-11-21T10:51:09;24.02;;;12.02;;
76667;SDS011;65585;51.166;16.922;2023-11-21T10:53:39;26.90;;;13.20;;
76667;SDS011;65585;51.166;16.922;2023-11-21T10:56:08;27.10;;;13.80;;
76667;SDS011;65585;51.166;16.922;2023-11-21T10:58:43;20.98;;;11.65;;
76667;SDS011;65585;51.166;16.922;2023-11-21T11:01:09;23.65;;;11.77;;
76667;SDS011;65585;51.166;16.922;2023-11-21T11:03:37;26.20;;;13.02;;
76667;SDS011;65585;51.166;16.922;2023-11-21T11:06:04;24.92;;;12.02;;
76667;SDS011;65585;51.166;16.922;2023-11-21T11:08:33;21.42;;;12.18;;
76667;SDS011;65585;51.166;16.922;2023-11-21T11:10:59;22.77;;;11.82;;
76667;SDS011;65585;51.166;16.922;2023-11-21T11:13:25;21.15;;;11.15;;
76667;SDS011;65585;51.166;16.922;2023-11-21T11:15:53;23.73;;;12.15;;
76667;SDS011;65585;51.166;16.922;2023-11-21T11:18:25;24.52;;;13.27;;
76667;SDS011;65585;51.166;16.922;2023-11-21T11:20:51;26.63;;;13.05;;
76667;SDS011;65585;51.166;16.922;2023-11-21T11:31:47;29.63;;;14.40;;
76667;SDS011;65585;51.166;16.922;2023-11-21T11:34:29;32.20;;;15.15;;
76667;SDS011;65585;51.166;16.922;2023-11-21T11:37:02;26.08;;;14.23;;
76667;SDS011;65585;51.166;16.922;2023-11-21T11:41:57;25.58;;;13.38;;
76667;SDS011;65585;51.166;16.922;2023-11-21T11:47:18;18.80;;;11.30;;
76667;SDS011;65585;51.166;16.922;2023-11-21T11:49:58;24.20;;;11.77;;
76667;SDS011;65585;51.166;16.922;2023-11-21T11:52:36;22.20;;;11.35;;
76667;SDS011;65585;51.166;16.922;2023-11-21T11:55:11;25.48;;;12.32;;
76667;SDS011;65585;51.166;16.922;2023-11-21T11:58:04;22.05;;;11.13;;
76667;SDS011;65585;51.166;16.922;2023-11-21T12:02:59;19.30;;;9.98;;
76667;SDS011;65585;51.166;16.922;2023-11-21T12:05:29;17.83;;;8.85;;
76667;SDS011;65585;51.166;16.922;2023-11-21T12:08:10;18.67;;;9.02;;
76667;SDS011;65585;51.166;16.922;2023-11-21T12:10:37;16.80;;;9.25;;
76667;SDS011;65585;51.166;16.922;2023-11-21T12:13:08;19.58;;;8.27;;
76667;SDS011;65585;51.166;16.922;2023-11-21T12:15:36;15.60;;;9.05;;
76667;SDS011;65585;51.166;16.922;2023-11-21T12:18:02;16.88;;;8.98;;
76667;SDS011;65585;51.166;16.922;2023-11-21T12:20:32;17.15;;;9.52;;
76667;SDS011;65585;51.166;16.922;2023-11-21T12:23:03;14.50;;;9.18;;
76667;SDS011;65585;51.166;16.922;2023-11-21T12:25:31;13.98;;;8.85;;
76667;SDS011;65585;51.166;16.922;2023-11-21T12:27:58;14.95;;;8.57;;
76667;SDS011;65585;51.166;16.922;2023-11-21T12:30:26;13.85;;;8.57;;
76667;SDS011;65585;51.166;16.922;2023-11-21T12:33:03;14.35;;;8.43;;
76667;SDS011;65585;51.166;16.922;2023-11-21T12:35:32;15.88;;;8.57;;
76667;SDS011;65585;51.166;16.922;2023-11-21T12:38:03;13.95;;;7.82;;
76667;SDS011;65585;51.166;16.922;2023-11-21T12:40:35;13.30;;;8.15;;
76667;SDS011;65585;51.166;16.922;2023-11-21T12:43:01;11.65;;;7.43;;
76667;SDS011;65585;51.166;16.922;2023-11-21T12:45:29;8.50;;;5.85;;
76667;SDS011;65585;51.166;16.922;2023-11-21T12:47:57;11.43;;;6.45;;
76667;SDS011;65585;51.166;16.922;2023-11-21T12:50:26;11.75;;;6.40;;
76667;SDS011;65585;51.166;16.922;2023-11-21T12:53:02;12.10;;;7.63;;
76667;SDS011;65585;51.166;16.922;2023-11-21T12:55:43;12.27;;;7.50;;
76667;SDS011;65585;51.166;16.922;2023-11-21T12:58:15;14.07;;;6.53;;
76667;SDS011;65585;51.166;16.922;2023-11-21T13:00:46;9.05;;;6.60;;
76667;SDS011;65585;51.166;16.922;2023-11-21T13:03:13;9.82;;;5.88;;
76667;SDS011;65585;51.166;16.922;2023-11-21T13:05:46;10.73;;;6.30;;
76667;SDS011;65585;51.166;16.922;2023-11-21T13:08:16;8.40;;;4.78;;
76667;SDS011;65585;51.166;16.922;2023-11-21T13:10:48;9.00;;;6.05;;
76667;SDS011;65585;51.166;16.922;2023-11-21T13:13:15;8.60;;;6.15;;
76667;SDS011;65585;51.166;16.922;2023-11-21T13:15:48;9.18;;;5.28;;
76667;SDS011;65585;51.166;16.922;2023-11-21T13:18:22;8.98;;;5.53;;
76667;SDS011;65585;51.166;16.922;2023-11-21T13:20:56;9.00;;;5.55;;
76667;SDS011;65585;51.166;16.922;2023-11-21T13:23:23;9.95;;;6.05;;
76667;SDS011;65585;51.166;16.922;2023-11-21T13:25:50;9.13;;;6.00;;
76667;SDS011;65585;51.166;16.922;2023-11-21T13:28:16;10.75;;;5.60;;
76667;SDS011;65585;51.166;16.922;2023-11-21T13:30:47;9.80;;;6.75;;
76667;SDS011;65585;51.166;16.922;2023-11-21T13:33:14;10.93;;;6.07;;
76667;SDS011;65585;51.166;16.922;2023-11-21T13:35:47;10.45;;;6.45;;
76667;SDS011;65585;51.166;16.922;2023-11-21T13:38:15;12.35;;;6.03;;
76667;SDS011;65585;51.166;16.922;2023-11-21T13:40:46;8.90;;;5.30;;
76667;SDS011;65585;51.166;16.922;2023-11-21T13:43:16;9.85;;;5.78;;
76667;SDS011;65585;51.166;16.922;2023-11-21T13:45:44;10.43;;;6.75;;
76667;SDS011;65585;51.166;16.922;2023-11-21T13:48:11;11.63;;;6.32;;
76667;SDS011;65585;51.166;16.922;2023-11-21T13:50:56;11.07;;;6.05;;
76667;SDS011;65585;51.166;16.922;2023-11-21T13:53:33;10.15;;;5.82;;
76667;SDS011;65585;51.166;16.922;2023-11-21T13:56:03;8.90;;;4.97;;
76667;SDS011;65585;51.166;16.922;2023-11-21T13:58:29;8.45;;;5.15;;
76667;SDS011;65585;51.166;16.922;2023-11-21T14:01:13;6.82;;;4.70;;
76667;SDS011;65585;51.166;16.922;2023-11-21T14:03:58;9.75;;;5.53;;
76667;SDS011;65585;51.166;16.922;2023-11-21T14:06:54;10.25;;;5.90;;
76667;SDS011;65585;51.166;16.922;2023-11-21T14:09:20;11.30;;;6.85;;
76667;SDS011;65585;51.166;16.922;2023-11-21T14:11:51;9.82;;;6.85;;
76667;SDS011;65585;51.166;16.922;2023-11-21T14:14:22;11.07;;;7.15;;
76667;SDS011;65585;51.166;16.922;2023-11-21T14:16:56;9.77;;;7.00;;
76667;SDS011;65585;51.166;16.922;2023-11-21T14:19:24;10.98;;;6.68;;
76667;SDS011;65585;51.166;16.922;2023-11-21T14:21:55;10.95;;;7.43;;
76667;SDS011;65585;51.166;16.922;2023-11-21T14:24:21;10.70;;;6.88;;
76667;SDS011;65585;51.166;16.922;2023-11-21T14:26:49;15.70;;;7.90;;
76667;SDS011;65585;51.166;16.922;2023-11-21T14:29:15;16.38;;;10.27;;
76667;SDS011;65585;51.166;16.922;2023-11-21T14:31:46;13.50;;;9.23;;
76667;SDS011;65585;51.166;16.922;2023-11-21T14:34:12;19.17;;;10.93;;
76667;SDS011;65585;51.166;16.922;2023-11-21T14:36:39;18.38;;;10.55;;
76667;SDS011;65585;51.166;16.922;2023-11-21T14:39:06;19.67;;;10.88;;
76667;SDS011;65585;51.166;16.922;2023-11-21T14:41:35;16.02;;;9.15;;
76667;SDS011;65585;51.166;16.922;2023-11-21T14:44:01;19.27;;;10.68;;
76667;SDS011;65585;51.166;16.922;2023-11-21T14:46:29;18.13;;;10.75;;
76667;SDS011;65585;51.166;16.922;2023-11-21T14:48:57;17.45;;;9.68;;
76667;SDS011;65585;51.166;16.922;2023-11-21T14:51:30;17.00;;;10.10;;
76667;SDS011;65585;51.166;16.922;2023-11-21T14:53:57;16.70;;;9.95;;